Time;durP1;ratioP1;P1;durP2;ratioP2;P2;SDS_P1;SDS_P2;PMS_P1;PMS_P2;Temp;Humidity;BMP_temperature;BMP_pressure;BME280_temperature;BME280_humidity;BME280_pressure;Samples;Min_cycle;Max_cycle;Signal;HPM_P1;HPM_P2
2021/07/14 00:00:20;;;;;;;;;;;;;;;22.95;79.71;99667.61;1692109;83;20152;-86
2021/07/14 00:02:47;;;;;;;;;;;;;;;22.91;80.13;99655.70;1702495;83;20179;-86
2021/07/14 00:05:13;;;;;;;;;;;;;;;22.94;80.90;99649.81;1698815;82;20198;-85
2021/07/14 00:07:39;;;;;;;;;;;;;;;22.90;80.44;99652.74;1699164;82;21124;-85
2021/07/14 00:10:14;;;;;;;;;;;;;;;22.94;80.47;99651.16;1696276;82;20142;-84
2021/07/14 00:13:05;;;;;;;;;;;;;;;22.87;80.71;99653.24;1702506;83;20203;-86
2021/07/14 00:17:12;;;;;;;;;;;;;;;22.86;80.37;99659.68;1694311;83;20213;-85
2021/07/14 00:22:04;;;;;;;;;;;;;;;22.83;80.69;99658.83;1690404;83;20223;-86
2021/07/14 00:22:54;;;;;;;;;;;;;;;22.81;80.84;99654.23;1698398;83;20155;-85
2021/07/14 00:25:19;;;;;;;;;;;;;;;22.73;81.34;99649.27;1689380;82;20472;-86
2021/07/14 00:27:49;;;;;;;;;;;;;;;22.76;81.68;99648.77;1697051;82;20120;-85
2021/07/14 00:30:15;;;;;;;;;;;;;;;22.71;81.49;99651.40;1699855;82;20140;-88
2021/07/14 00:32:41;;;;;;;;;;;;;;;22.73;81.37;99649.27;1701537;83;20598;-93
2021/07/14 00:35:08;;;;;;;;;;;;;;;22.70;81.41;99645.21;1701304;83;20492;-86
2021/07/14 00:37:36;;;;;;;;;;;;;;;22.68;81.43;99641.13;1700432;83;20185;-88
2021/07/14 00:40:06;;;;;;;;;;;;;;;22.70;80.99;99638.99;1703761;82;20594;-84
2021/07/14 00:42:31;;;;;;;;;;;;;;;22.64;81.30;99633.26;1700445;82;20133;-87
2021/07/14 00:44:57;;;;;;;;;;;;;;;22.56;81.40;99631.30;1689591;83;21857;-87
2021/07/14 00:47:32;;;;;;;;;;;;;;;22.55;81.89;99629.66;1696100;82;20144;-86
2021/07/14 00:49:58;;;;;;;;;;;;;;;22.55;82.46;99629.66;1694671;82;20478;-89
2021/07/14 00:52:23;;;;;;;;;;;;;;;22.56;82.95;99631.30;1703851;82;20710;-87
2021/07/14 00:54:49;;;;;;;;;;;;;;;22.51;82.16;99628.55;1701393;82;20160;-90
2021/07/14 00:57:16;;;;;;;;;;;;;;;22.34;82.94;99633.11;1649829;83;21179;-86
2021/07/14 00:59:42;;;;;;;;;;;;;;;22.40;82.82;99637.51;1692620;83;20456;-87
2021/07/14 01:02:08;;;;;;;;;;;;;;;22.35;82.83;99638.79;1703471;82;20193;-85
2021/07/14 01:04:35;;;;;;;;;;;;;;;22.36;83.09;99641.77;1662410;82;21504;-87
2021/07/14 01:07:38;;;;;;;;;;;;;;;22.30;83.21;99640.04;1695755;83;20210;-85
2021/07/14 01:10:16;;;;;;;;;;;;;;;22.22;83.75;99643.41;1697975;82;21009;-84
2021/07/14 01:12:55;;;;;;;;;;;;;;;22.26;83.79;99643.73;1687753;83;20225;-84
2021/07/14 01:15:19;;;;;;;;;;;;;;;22.32;83.85;99643.31;1700369;83;20445;-87
2021/07/14 01:18:11;;;;;;;;;;;;;;;22.34;83.48;99649.25;1701825;83;20472;-87
2021/07/14 01:20:55;;;;;;;;;;;;;;;22.27;83.79;99649.41;1702583;82;20203;-91
2021/07/14 01:23:42;;;;;;;;;;;;;;;22.24;83.99;99652.05;1698862;82;21098;-85
2021/07/14 01:26:42;;;;;;;;;;;;;;;22.15;84.40;99654.05;1700661;82;20152;-88
2021/07/14 01:29:08;;;;;;;;;;;;;;;22.14;84.64;99650.56;1702704;82;20187;-86
2021/07/14 01:31:35;;;;;;;;;;;;;;;22.11;84.97;99656.42;1696216;83;20138;-85
2021/07/14 01:34:02;;;;;;;;;;;;;;;22.10;85.44;99651.30;1696479;82;20185;-87
2021/07/14 01:36:28;;;;;;;;;;;;;;;22.06;85.61;99648.25;1704549;82;21048;-85
2021/07/14 01:38:53;;;;;;;;;;;;;;;22.07;85.56;99650.44;1695272;82;20151;-87
2021/07/14 01:41:20;;;;;;;;;;;;;;;22.05;85.51;99652.02;1703556;83;20185;-85
2021/07/14 01:43:52;;;;;;;;;;;;;;;22.05;85.53;99652.02;1706749;83;20123;-83
2021/07/14 01:46:18;;;;;;;;;;;;;;;22.03;85.86;99652.78;1706243;82;20717;-84
2021/07/14 01:48:44;;;;;;;;;;;;;;;21.97;86.05;99648.38;1699746;82;21909;-84
2021/07/14 01:51:10;;;;;;;;;;;;;;;22.00;85.94;99644.69;1704806;82;20464;-84
2021/07/14 01:53:36;;;;;;;;;;;;;;;21.99;86.06;99650.31;1704296;82;21019;-84
2021/07/14 01:56:02;;;;;;;;;;;;;;;22.00;86.28;99651.92;1709217;83;20309;-84
2021/07/14 01:58:42;;;;;;;;;;;;;;;22.04;86.01;99658.45;1700577;82;20158;-84
2021/07/14 02:01:09;;;;;;;;;;;;;;;22.03;86.34;99652.78;1707451;82;21064;-86
2021/07/14 02:06:04;;;;;;;;;;;;;;;21.96;86.73;99644.08;1697712;82;20145;-83
2021/07/14 02:08:30;;;;;;;;;;;;;;;21.94;86.74;99654.23;1697048;83;20122;-83
2021/07/14 02:10:55;;;;;;;;;;;;;;;21.93;86.70;99658.00;1695516;83;21062;-84
2021/07/14 02:13:22;;;;;;;;;;;;;;;21.90;87.00;99658.48;1702111;83;21887;-83
2021/07/14 02:15:55;;;;;;;;;;;;;;;21.92;86.97;99659.05;1697696;83;20211;-86
2021/07/14 02:18:24;;;;;;;;;;;;;;;21.99;86.85;99659.72;1698093;83;20213;-84
2021/07/14 02:20:51;;;;;;;;;;;;;;;21.99;86.73;99664.56;1705975;82;20282;-84
2021/07/14 02:23:16;;;;;;;;;;;;;;;21.99;86.65;99660.53;1707333;83;20211;-86
2021/07/14 02:25:42;;;;;;;;;;;;;;;21.94;87.02;99669.02;1697261;83;21865;-86
2021/07/14 02:28:07;;;;;;;;;;;;;;;21.93;87.14;99662.84;1702233;83;20137;-85
2021/07/14 02:30:35;;;;;;;;;;;;;;;21.85;87.71;99655.99;1701307;82;20461;-85
2021/07/14 02:33:05;;;;;;;;;;;;;;;21.97;87.06;99661.81;1700465;82;20197;-85
2021/07/14 02:35:33;;;;;;;;;;;;;;;22.03;86.96;99660.84;1709589;83;20194;-84
2021/07/14 02:38:14;;;;;;;;;;;;;;;21.99;87.24;99665.91;1712383;82;21897;-84
2021/07/14 02:40:48;;;;;;;;;;;;;;;22.02;86.97;99658.70;1687125;82;20219;-84
2021/07/14 02:43:14;;;;;;;;;;;;;;;22.01;87.01;99664.31;1703675;82;20203;-84
2021/07/14 02:45:44;;;;;;;;;;;;;;;21.99;87.36;99663.75;1698733;83;20483;-84
2021/07/14 02:48:10;;;;;;;;;;;;;;;21.98;87.77;99668.84;1689200;83;20224;-84
2021/07/14 02:50:35;;;;;;;;;;;;;;;21.99;87.81;99665.09;1700276;82;20998;-84
2021/07/14 02:53:04;;;;;;;;;;;;;;;22.02;87.74;99668.64;1696306;83;20154;-85
2021/07/14 02:55:31;;;;;;;;;;;;;;;22.05;87.57;99668.16;1698612;83;20130;-84
2021/07/14 02:57:57;;;;;;;;;;;;;;;22.02;87.78;99661.92;1701704;83;20145;-86
2021/07/14 03:00:23;;;;;;;;;;;;;;;22.04;87.88;99663.83;1700574;82;20143;-85
2021/07/14 03:02:48;;;;;;;;;;;;;;;21.95;88.04;99644.59;1702978;83;21110;-88
2021/07/14 03:05:14;;;;;;;;;;;;;;;21.98;88.14;99655.39;1700662;82;20141;-83
2021/07/14 03:07:41;;;;;;;;;;;;;;;21.98;88.33;99656.73;1705349;82;20180;-87
2021/07/14 03:10:09;;;;;;;;;;;;;;;22.03;88.40;99660.33;1705332;82;21139;-85
2021/07/14 03:12:36;;;;;;;;;;;;;;;22.08;88.16;99658.77;1697256;83;20111;-87
2021/07/14 03:15:05;;;;;;;;;;;;;;;22.08;88.45;99656.08;1692694;83;20129;-87
2021/07/14 03:17:31;;;;;;;;;;;;;;;22.12;88.50;99657.23;1701955;83;20164;-86
2021/07/14 03:19:57;;;;;;;;;;;;;;;22.11;87.93;99651.05;1697204;83;20191;-88
2021/07/14 03:22:22;;;;;;;;;;;;;;;22.05;88.54;99646.64;1695206;83;20158;-84
2021/07/14 03:24:48;;;;;;;;;;;;;;;22.02;88.79;99651.17;1702914;82;20192;-86
2021/07/14 03:27:15;;;;;;;;;;;;;;;21.99;88.48;99646.28;1698316;83;21880;-85
2021/07/14 03:29:41;;;;;;;;;;;;;;;21.91;89.17;99651.53;1701406;82;20202;-86
2021/07/14 03:32:07;;;;;;;;;;;;;;;21.91;89.45;99650.69;1706592;82;20151;-85
2021/07/14 03:34:32;;;;;;;;;;;;;;;21.92;89.45;99647.76;1694222;82;20146;-86
2021/07/14 03:37:04;;;;;;;;;;;;;;;21.95;89.37;99646.47;1688734;83;20878;-84
2021/07/14 03:39:25;;;;;;;;;;;;;;;21.91;89.77;99650.69;1699665;82;20642;-84
2021/07/14 03:41:51;;;;;;;;;;;;;;;21.93;89.76;99649.94;1673974;83;20161;-85
2021/07/14 03:44:17;;;;;;;;;;;;;;;22.00;89.45;99643.85;1684407;83;20204;-86
2021/07/14 03:46:43;;;;;;;;;;;;;;;22.03;89.22;99645.55;1690416;83;20475;-84
2021/07/14 03:49:09;;;;;;;;;;;;;;;21.98;89.59;99651.36;1693747;82;20172;-88
2021/07/14 03:51:34;;;;;;;;;;;;;;;21.98;89.92;99651.36;1701789;83;21266;-84
2021/07/14 03:54:00;;;;;;;;;;;;;;;21.99;89.83;99650.31;1694345;82;21097;-85
2021/07/14 03:56:26;;;;;;;;;;;;;;;22.02;89.76;99660.58;1695794;83;20123;-88
2021/07/14 03:58:52;;;;;;;;;;;;;;;22.03;89.94;99655.47;1691688;83;20131;-84
2021/07/14 04:01:18;;;;;;;;;;;;;;;22.06;89.71;99657.67;1708220;83;20171;-84
2021/07/14 04:03:45;;;;;;;;;;;;;;;22.16;89.45;99661.07;1695426;83;21065;-86
2021/07/14 04:06:11;;;;;;;;;;;;;;;22.21;89.30;99667.33;1697727;83;20205;-86
2021/07/14 04:08:42;;;;;;;;;;;;;;;22.26;89.19;99666.59;1663975;83;20186;-87
2021/07/14 04:11:07;;;;;;;;;;;;;;;22.30;88.88;99665.08;1701949;83;20459;-85
2021/07/14 04:13:34;;;;;;;;;;;;;;;22.33;88.74;99666.48;1695238;83;20166;-88
2021/07/14 04:15:59;;;;;;;;;;;;;;;22.41;88.53;99666.05;1698465;83;22057;-87
2021/07/14 04:18:25;;;;;;;;;;;;;;;22.53;88.16;99672.16;1700016;82;20283;-90
2021/07/14 04:20:50;;;;;;;;;;;;;;;22.49;88.37;99679.08;1705311;83;21073;-87
2021/07/14 04:23:16;;;;;;;;;;;;;;;22.54;88.13;99673.80;1701673;83;20131;-85
2021/07/14 04:25:41;;;;;;;;;;;;;;;22.59;87.94;99673.86;1703696;83;20229;-86
2021/07/14 04:28:07;;;;;;;;;;;;;;;22.65;87.65;99674.73;1702293;82;21081;-84
2021/07/14 04:30:33;;;;;;;;;;;;;;;22.69;87.40;99673.17;1702546;82;20144;-86
2021/07/14 04:32:59;;;;;;;;;;;;;;;22.73;87.31;99671.63;1704121;83;20429;-86
2021/07/14 04:35:24;;;;;;;;;;;;;;;22.78;87.30;99670.89;1696551;82;20474;-86
2021/07/14 04:37:50;;;;;;;;;;;;;;;22.83;87.19;99672.29;1702773;82;20730;-85
2021/07/14 04:40:16;;;;;;;;;;;;;;;22.88;87.04;99680.42;1692266;83;21087;-85
2021/07/14 04:42:42;;;;;;;;;;;;;;;22.97;86.92;99678.67;1700498;82;20135;-84
2021/07/14 04:45:08;;;;;;;;;;;;;;;23.01;86.86;99683.81;1708525;83;20462;-86
2021/07/14 04:47:34;;;;;;;;;;;;;;;23.05;86.65;99681.72;1697829;82;20923;-89
2021/07/14 04:49:59;;;;;;;;;;;;;;;23.10;86.34;99676.96;1705445;83;20811;-85
2021/07/14 04:52:25;;;;;;;;;;;;;;;23.19;86.25;99686.77;1700916;83;21098;-80
2021/07/14 04:54:50;;;;;;;;;;;;;;;23.25;86.07;99681.19;1690853;82;20152;-84
2021/07/14 04:57:16;;;;;;;;;;;;;;;23.29;85.66;99676.94;1706465;82;20221;-86
2021/07/14 04:59:41;;;;;;;;;;;;;;;23.32;85.70;99680.19;1690966;82;20156;-86
2021/07/14 05:02:07;;;;;;;;;;;;;;;23.38;85.67;99679.98;1701073;83;20472;-88
2021/07/14 05:04:33;;;;;;;;;;;;;;;23.38;85.52;99670.55;1695329;83;21071;-90
2021/07/14 05:06:58;;;;;;;;;;;;;;;23.40;85.52;99667.60;1698337;82;20191;-87
2021/07/14 05:09:24;;;;;;;;;;;;;;;23.44;85.62;99667.39;1699090;83;20154;-87
2021/07/14 05:11:49;;;;;;;;;;;;;;;23.54;85.23;99658.07;1698011;82;20128;-86
2021/07/14 05:14:15;;;;;;;;;;;;;;;23.64;85.12;99660.05;1699863;83;20146;-89
2021/07/14 05:16:41;;;;;;;;;;;;;;;23.73;84.78;99664.45;1706859;82;21214;-92
2021/07/14 05:19:06;;;;;;;;;;;;;;;23.79;84.48;99648.61;1702669;83;20479;-91
2021/07/14 05:21:32;;;;;;;;;;;;;;;23.86;84.13;99653.27;1707210;82;20166;-89
2021/07/14 05:23:58;;;;;;;;;;;;;;;23.93;83.45;99649.83;1694216;83;20299;-86
2021/07/14 05:26:23;;;;;;;;;;;;;;;24.02;83.41;99648.84;1700024;83;20178;-87
2021/07/14 05:28:51;;;;;;;;;;;;;;;24.11;82.78;99652.66;1695278;83;21027;-86
2021/07/14 05:31:16;;;;;;;;;;;;;;;24.18;82.48;99645.71;1688242;82;20416;-87
2021/07/14 05:33:42;;;;;;;;;;;;;;;24.20;82.55;99648.95;1701322;83;20410;-89
2021/07/14 05:36:08;;;;;;;;;;;;;;;24.22;82.37;99638.70;1701198;83;20497;-87
2021/07/14 05:38:36;;;;;;;;;;;;;;;24.31;82.44;99638.50;1704719;83;20471;-88
2021/07/14 05:41:02;;;;;;;;;;;;;;;24.36;82.29;99640.42;1700529;83;21156;-87
2021/07/14 05:43:29;;;;;;;;;;;;;;;24.38;82.48;99640.45;1695755;83;20182;-87
2021/07/14 05:45:54;;;;;;;;;;;;;;;24.46;82.28;99636.98;1688537;83;20602;-87
2021/07/14 05:48:21;;;;;;;;;;;;;;;24.47;82.29;99638.59;1697122;83;20444;-88
2021/07/14 05:50:46;;;;;;;;;;;;;;;24.58;82.21;99642.20;1695883;82;20186;-88
2021/07/14 05:53:14;;;;;;;;;;;;;;;24.66;82.15;99649.28;1709938;83;21092;-94
2021/07/14 05:55:39;;;;;;;;;;;;;;;24.70;81.51;99644.98;1699127;82;20187;-88
2021/07/14 05:58:05;;;;;;;;;;;;;;;24.75;81.63;99639.32;1694046;83;20170;-90
2021/07/14 06:00:31;;;;;;;;;;;;;;;24.81;81.91;99646.38;1706782;82;20182;-89
2021/07/14 06:02:57;;;;;;;;;;;;;;;24.85;81.80;99647.48;1699706;82;20298;-90
2021/07/14 06:05:22;;;;;;;;;;;;;;;24.91;81.46;99646.42;1702652;82;21054;-91
2021/07/14 06:07:48;;;;;;;;;;;;;;;25.00;81.68;99644.84;1701353;83;20134;-91
2021/07/14 06:10:14;;;;;;;;;;;;;;;25.03;81.62;99650.23;1696003;83;20154;-94
2021/07/14 06:12:39;;;;;;;;;;;;;;;25.12;81.45;99646.50;1698425;83;20150;-95
2021/07/14 06:15:05;;;;;;;;;;;;;;;25.21;81.10;99646.27;1684328;82;20442;-93
2021/07/14 06:17:31;;;;;;;;;;;;;;;25.27;80.97;99650.05;1688501;83;21071;-94
2021/07/14 06:19:56;;;;;;;;;;;;;;;25.36;80.70;99651.74;1690669;83;20147;-95
2021/07/14 06:22:25;;;;;;;;;;;;;;;25.42;80.11;99652.03;1694181;83;20525;-95
2021/07/14 06:24:50;;;;;;;;;;;;;;;25.42;80.09;99642.56;1696972;83;20208;-91
2021/07/14 06:27:18;;;;;;;;;;;;;;;25.50;80.20;99647.19;1685596;81;20178;-94
2021/07/14 06:29:43;;;;;;;;;;;;;;;25.58;80.02;99650.70;1688775;83;20148;-91
2021/07/14 06:32:11;;;;;;;;;;;;;;;25.61;79.82;99665.05;1691144;83;20147;-91
2021/07/14 06:34:37;;;;;;;;;;;;;;;25.60;79.80;99654.75;1695953;83;20219;-93
2021/07/14 06:37:07;;;;;;;;;;;;;;;25.66;79.64;99655.58;1694943;83;20181;-96
2021/07/14 06:39:33;;;;;;;;;;;;;;;25.72;79.78;99655.05;1700835;83;20210;-91
2021/07/14 06:41:59;;;;;;;;;;;;;;;25.75;79.56;99651.81;1690144;83;21032;-87
2021/07/14 06:44:25;;;;;;;;;;;;;;;25.84;79.43;99658.31;1692111;82;20747;-95
2021/07/14 06:46:54;;;;;;;;;;;;;;;25.90;79.41;99648.28;1689219;82;20206;-96
2021/07/14 06:49:20;;;;;;;;;;;;;;;25.93;79.78;99654.51;1698301;82;20170;-93
2021/07/14 06:51:58;;;;;;;;;;;;;;;26.03;79.48;99661.31;1693028;82;20097;-96
2021/07/14 06:54:24;;;;;;;;;;;;;;;26.10;79.13;99657.80;1697085;82;21261;-94
2021/07/14 06:56:49;;;;;;;;;;;;;;;26.17;78.77;99654.81;1689009;82;20199;-90
2021/07/14 06:59:15;;;;;;;;;;;;;;;26.26;78.72;99653.73;1694619;83;20160;-94
2021/07/14 07:01:40;;;;;;;;;;;;;;;26.36;78.82;99652.90;1687914;83;20608;-93
2021/07/14 07:04:06;;;;;;;;;;;;;;;26.40;78.70;99650.73;1688292;83;20134;-87
2021/07/14 07:06:31;;;;;;;;;;;;;;;26.40;78.35;99646.66;1693539;82;21073;-88
2021/07/14 07:08:57;;;;;;;;;;;;;;;26.46;78.50;99648.28;1688855;83;20177;-89
2021/07/14 07:11:22;;;;;;;;;;;;;;;26.54;78.22;99646.91;1695573;82;20203;-86
2021/07/14 07:13:48;;;;;;;;;;;;;;;26.57;78.25;99647.72;1695382;83;20128;-90
2021/07/14 07:16:14;;;;;;;;;;;;;;;26.66;78.33;99641.20;1685841;83;20193;-88
2021/07/14 07:18:39;;;;;;;;;;;;;;;26.77;78.10;99644.69;1692319;82;21871;-89
2021/07/14 07:21:07;;;;;;;;;;;;;;;26.82;77.86;99645.49;1686403;83;20144;-90
2021/07/14 07:23:32;;;;;;;;;;;;;;;26.91;77.56;99643.55;1685397;83;20139;-90
2021/07/14 07:25:58;;;;;;;;;;;;;;;27.00;77.33;99637.83;1691074;83;20138;-87
2021/07/14 07:28:28;;;;;;;;;;;;;;;27.08;77.21;99639.98;1697328;82;20159;-89
2021/07/14 07:30:51;;;;;;;;;;;;;;;27.14;77.23;99633.41;1697275;83;20131;-89
2021/07/14 07:33:16;;;;;;;;;;;;;;;27.22;76.88;99639.62;1699563;82;20488;-90
2021/07/14 07:35:42;;;;;;;;;;;;;;;27.28;76.88;99636.32;1702167;82;20136;-90
2021/07/14 07:38:08;;;;;;;;;;;;;;;27.38;76.59;99636.86;1699855;82;20198;-94
2021/07/14 07:40:34;;;;;;;;;;;;;;;27.48;76.10;99642.20;1698202;82;20202;-90
2021/07/14 07:42:59;;;;;;;;;;;;;;;27.55;75.70;99644.06;1691887;82;21847;-88
2021/07/14 07:45:26;;;;;;;;;;;;;;;27.61;75.75;99652.16;1697286;83;20185;-90
2021/07/14 07:47:54;;;;;;;;;;;;;;;27.68;75.61;99652.66;1703246;83;20176;-91
2021/07/14 07:50:21;;;;;;;;;;;;;;;27.75;75.71;99645.02;1697373;82;20160;-93
2021/07/14 07:52:47;;;;;;;;;;;;;;;27.83;75.40;99651.19;1699617;83;20522;-91
2021/07/14 07:55:14;;;;;;;;;;;;;;;27.91;75.18;99651.13;1701903;83;21216;-87
2021/07/14 07:57:40;;;;;;;;;;;;;;;28.00;74.88;99644.55;1694414;83;20226;-90
2021/07/14 08:00:08;;;;;;;;;;;;;;;28.01;74.23;99644.83;1695723;83;20286;-90
2021/07/14 08:02:33;;;;;;;;;;;;;;;28.03;74.35;99643.98;1695530;82;20197;-91
2021/07/14 08:04:59;;;;;;;;;;;;;;;28.01;74.35;99638.04;1661286;83;20567;-91
2021/07/14 08:07:25;;;;;;;;;;;;;;;28.08;74.17;99643.40;1670562;83;21793;-89
2021/07/14 08:09:50;;;;;;;;;;;;;;;28.11;74.38;99643.39;1700479;82;20141;-94
2021/07/14 08:12:16;;;;;;;;;;;;;;;28.20;73.60;99641.67;1692179;83;20159;-91
2021/07/14 08:14:43;;;;;;;;;;;;;;;28.27;74.19;99643.48;1695227;82;20311;-91
2021/07/14 08:17:09;;;;;;;;;;;;;;;28.39;73.79;99645.02;1694189;81;20199;-90
2021/07/14 08:19:34;;;;;;;;;;;;;;;28.47;73.83;99649.82;1704701;82;21977;-95
2021/07/14 08:22:00;;;;;;;;;;;;;;;28.60;73.95;99649.14;1704730;82;20239;-94
2021/07/14 08:24:25;;;;;;;;;;;;;;;28.72;73.59;99650.67;1699576;82;20091;-94
2021/07/14 08:26:51;;;;;;;;;;;;;;;28.78;73.01;99646.80;1700491;82;20107;-92
2021/07/14 08:29:16;;;;;;;;;;;;;;;28.86;72.80;99651.58;1706646;81;20155;-95
2021/07/14 08:31:43;;;;;;;;;;;;;;;28.93;72.70;99656.13;1692142;82;21521;-94
2021/07/14 08:34:11;;;;;;;;;;;;;;;29.00;72.43;99660.64;1693789;82;20148;-91
2021/07/14 08:36:39;;;;;;;;;;;;;;;29.05;71.64;99665.20;1699268;82;20172;-93
2021/07/14 08:39:32;;;;;;;;;;;;;;;29.11;71.46;99668.67;1704026;83;21043;-95
2021/07/14 08:42:01;;;;;;;;;;;;;;;29.13;70.84;99664.58;1702206;82;20332;-95
2021/07/14 08:44:27;;;;;;;;;;;;;;;29.23;71.45;99671.81;1696093;83;21107;-94
2021/07/14 08:46:53;;;;;;;;;;;;;;;29.29;71.25;99676.08;1693310;83;20141;-91
2021/07/14 08:49:18;;;;;;;;;;;;;;;29.25;70.37;99668.23;1682527;82;20177;-90
2021/07/14 08:51:44;;;;;;;;;;;;;;;29.32;70.20;99671.41;1701767;82;20144;-91
2021/07/14 08:54:10;;;;;;;;;;;;;;;29.35;70.32;99672.19;1690113;82;20149;-91
2021/07/14 08:56:35;;;;;;;;;;;;;;;29.41;69.72;99669.39;1699005;83;21866;-92
2021/07/14 08:59:01;;;;;;;;;;;;;;;29.56;70.57;99666.45;1705655;83;20181;-92
2021/07/14 09:01:26;;;;;;;;;;;;;;;29.65;70.18;99670.12;1694681;83;20140;-91
2021/07/14 09:03:52;;;;;;;;;;;;;;;29.68;69.88;99673.61;1694268;83;20137;-93
2021/07/14 09:06:17;;;;;;;;;;;;;;;29.79;70.02;99677.55;1695657;83;20235;-91
2021/07/14 09:08:43;;;;;;;;;;;;;;;29.86;69.95;99677.99;1689374;83;22037;-93
2021/07/14 09:11:09;;;;;;;;;;;;;;;29.96;69.55;99671.59;1694437;83;20134;-94
2021/07/14 09:13:36;;;;;;;;;;;;;;;30.02;69.37;99676.65;1682572;83;20791;-92
2021/07/14 09:16:02;;;;;;;;;;;;;;;30.12;69.45;99678.39;1701660;82;20206;-96
2021/07/14 09:18:29;;;;;;;;;;;;;;;30.21;69.43;99675.80;1702493;83;20729;-92
2021/07/14 09:20:56;;;;;;;;;;;;;;;30.30;68.96;99675.36;1696941;82;21064;-93
2021/07/14 09:23:25;;;;;;;;;;;;;;;30.37;68.57;99675.76;1699939;83;20315;-88
2021/07/14 09:25:59;;;;;;;;;;;;;;;30.43;68.82;99675.95;1696151;83;20202;-87
2021/07/14 09:28:32;;;;;;;;;;;;;;;30.45;67.18;99670.20;1699174;83;20162;-93
2021/07/14 09:31:06;;;;;;;;;;;;;;;30.47;66.15;99671.27;1692299;82;20673;-96
2021/07/14 09:33:32;;;;;;;;;;;;;;;30.51;66.99;99676.38;1684247;83;21122;-95
2021/07/14 09:36:02;;;;;;;;;;;;;;;30.63;66.68;99675.33;1701929;82;20188;-90
2021/07/14 09:38:32;;;;;;;;;;;;;;;30.72;66.69;99671.36;1701371;82;20164;-94
2021/07/14 09:41:00;;;;;;;;;;;;;;;30.75;66.75;99668.82;1693440;83;20246;-89
2021/07/14 09:43:27;;;;;;;;;;;;;;;30.82;66.65;99670.34;1696046;82;20584;-94
2021/07/14 09:46:10;;;;;;;;;;;;;;;30.92;66.53;99675.56;1708619;83;21017;-94
2021/07/14 09:48:38;;;;;;;;;;;;;;;31.04;66.19;99676.45;1699407;83;20202;-94
2021/07/14 09:51:13;;;;;;;;;;;;;;;31.05;64.86;99680.23;1698957;83;20203;-90
2021/07/14 09:53:47;;;;;;;;;;;;;;;31.10;64.90;99685.58;1700734;81;20162;-93
2021/07/14 09:56:20;;;;;;;;;;;;;;;31.16;65.17;99690.95;1704931;82;20521;-93
2021/07/14 09:58:46;;;;;;;;;;;;;;;31.27;65.65;99695.06;1695691;83;20453;-95
2021/07/14 10:01:13;;;;;;;;;;;;;;;31.28;66.16;99692.59;1697430;82;20537;-94
2021/07/14 10:03:48;;;;;;;;;;;;;;;31.35;66.29;99688.87;1692452;82;20192;-93
2021/07/14 10:06:15;;;;;;;;;;;;;;;31.38;65.10;99682.80;1698819;83;20222;-89
2021/07/14 10:08:43;;;;;;;;;;;;;;;31.42;64.84;99683.81;1701470;82;20163;-90
2021/07/14 10:11:12;;;;;;;;;;;;;;;31.50;64.09;99681.70;1696027;82;21265;-89
2021/07/14 10:13:51;;;;;;;;;;;;;;;31.54;64.04;99685.22;1701362;82;20175;-90
2021/07/14 10:16:18;;;;;;;;;;;;;;;31.63;64.32;99680.64;1683734;83;32956;-89
2021/07/14 10:21:59;;;;;;;;;;;;;;;31.79;63.26;99686.00;1697169;83;20555;-92
2021/07/14 10:24:24;;;;;;;;;;;;;;;31.88;62.47;99682.52;1696852;83;21229;-92
2021/07/14 10:26:53;;;;;;;;;;;;;;;31.92;62.63;99679.42;1684890;83;20285;-90
2021/07/14 10:29:19;;;;;;;;;;;;;;;31.95;61.61;99685.62;1697158;82;20156;-91
2021/07/14 10:31:47;;;;;;;;;;;;;;;31.99;60.29;99685.23;1703238;83;20135;-93
2021/07/14 10:34:15;;;;;;;;;;;;;;;32.02;61.04;99683.25;1704016;83;20125;-89
2021/07/14 10:36:45;;;;;;;;;;;;;;;32.08;60.50;99688.83;1706727;81;21183;-95
2021/07/14 10:39:16;;;;;;;;;;;;;;;32.16;60.69;99688.13;1698762;83;20086;-92
2021/07/14 10:41:44;;;;;;;;;;;;;;;32.26;59.90;99687.63;1698365;83;20137;-87
2021/07/14 10:44:57;;;;;;;;;;;;;;;32.30;60.02;99689.95;1708094;82;20172;-88
2021/07/14 10:47:23;;;;;;;;;;;;;;;32.32;59.37;99696.73;1683614;83;20176;-93
2021/07/14 10:49:48;;;;;;;;;;;;;;;32.37;59.38;99694.42;1683376;83;22600;-95
2021/07/14 10:52:14;;;;;;;;;;;;;;;32.33;58.71;99697.53;1695224;83;20598;-90
2021/07/14 10:54:41;;;;;;;;;;;;;;;32.41;58.37;99692.66;1687166;82;20188;-90
2021/07/14 10:57:07;;;;;;;;;;;;;;;32.50;59.09;99696.81;1695307;83;20259;-94
2021/07/14 10:59:32;;;;;;;;;;;;;;;32.60;59.49;99688.89;1683478;83;20566;-93
2021/07/14 11:01:59;;;;;;;;;;;;;;;32.68;57.77;99684.06;1683507;83;21089;-91
2021/07/14 11:04:31;;;;;;;;;;;;;;;32.71;56.91;99691.64;1700964;83;20206;-92
2021/07/14 11:06:58;;;;;;;;;;;;;;;32.77;57.47;99697.21;1698607;83;20175;-94
2021/07/14 11:09:33;;;;;;;;;;;;;;;32.78;57.04;99696.06;1697819;82;20124;-90
2021/07/14 11:11:58;;;;;;;;;;;;;;;32.89;57.18;99693.85;1701421;83;20197;-93
2021/07/14 11:17:45;;;;;;;;;;;;;;;32.99;56.65;99702.34;1703573;82;20218;-90
2021/07/14 11:20:26;;;;;;;;;;;;;;;;;;;;;
2021/07/14 11:22:59;;;;;;;;;;;;;;;33.09;56.69;99704.77;1691248;83;20239;-89
2021/07/14 11:25:31;;;;;;;;;;;;;;;33.16;55.64;99699.65;1701979;82;20182;-95
2021/07/14 11:28:01;;;;;;;;;;;;;;;33.22;55.14;99697.03;1697534;82;21112;-92
2021/07/14 11:30:29;;;;;;;;;;;;;;;33.32;55.06;99700.59;1695595;82;20474;-89
2021/07/14 11:32:56;;;;;;;;;;;;;;;33.41;55.45;99704.94;1704201;82;21166;-90
2021/07/14 11:35:40;;;;;;;;;;;;;;;33.45;54.53;99698.25;1706160;82;20735;-91
2021/07/14 11:38:14;;;;;;;;;;;;;;;33.54;54.37;99699.64;1688917;82;20961;-93
2021/07/14 11:40:45;;;;;;;;;;;;;;;33.63;54.51;99698.50;1692424;82;21091;-91
2021/07/14 11:43:17;;;;;;;;;;;;;;;33.70;53.02;99701.32;1697382;82;20268;-93
2021/07/14 11:45:49;;;;;;;;;;;;;;;33.77;52.56;99697.57;1693151;83;20515;-92
2021/07/14 11:48:19;;;;;;;;;;;;;;;33.80;51.77;99705.14;1698115;82;20198;-88
2021/07/14 11:50:57;;;;;;;;;;;;;;;33.91;52.51;99698.77;1697307;83;20256;-93
2021/07/14 11:53:37;;;;;;;;;;;;;;;33.97;53.17;99697.48;1694956;82;21047;-90
2021/07/14 11:56:29;;;;;;;;;;;;;;;33.99;50.03;99698.74;1696073;83;20189;-92
2021/07/14 11:59:07;;;;;;;;;;;;;;;34.08;49.24;99697.94;1693406;83;20133;-94
2021/07/14 12:01:36;;;;;;;;;;;;;;;34.15;50.06;99694.94;1702867;82;20219;-92
2021/07/14 12:04:07;;;;;;;;;;;;;;;34.26;50.35;99690.50;1697380;83;20610;-93
2021/07/14 12:06:38;;;;;;;;;;;;;;;34.32;49.64;99691.39;1691762;83;21091;-95
2021/07/14 12:09:13;;;;;;;;;;;;;;;34.35;49.47;99695.39;1702550;83;20242;-89
2021/07/14 12:11:42;;;;;;;;;;;;;;;34.40;49.34;99693.03;1699721;81;20142;-94
2021/07/14 12:14:08;;;;;;;;;;;;;;;34.40;48.95;99688.92;1695325;83;20118;-94
2021/07/14 12:16:37;;;;;;;;;;;;;;;34.44;48.67;99688.52;1692149;82;20119;-91
2021/07/14 12:19:03;;;;;;;;;;;;;;;34.56;48.65;99687.27;1702073;82;21163;-90
2021/07/14 12:21:32;;;;;;;;;;;;;;;34.63;49.42;99685.37;1701192;83;20726;-88
2021/07/14 12:23:58;;;;;;;;;;;;;;;34.76;49.61;99678.07;1701969;82;20161;-93
2021/07/14 12:26:24;;;;;;;;;;;;;;;34.81;47.22;99680.65;1691799;82;20196;-95
2021/07/14 12:28:50;;;;;;;;;;;;;;;34.86;47.53;99674.96;1700197;82;20156;-93
2021/07/14 12:31:16;;;;;;;;;;;;;;;34.93;46.97;99679.38;1695308;82;21188;-90
2021/07/14 12:33:42;;;;;;;;;;;;;;;34.95;48.13;99672.18;1701491;82;20174;-88
2021/07/14 12:36:07;;;;;;;;;;;;;;;35.01;46.76;99684.58;1703768;82;20156;-92
2021/07/14 12:38:33;;;;;;;;;;;;;;;35.10;47.11;99688.62;1701591;83;20120;-89
2021/07/14 12:40:58;;;;;;;;;;;;;;;35.21;46.16;99677.50;1693423;82;20159;-87
2021/07/14 12:43:25;;;;;;;;;;;;;;;35.31;46.53;99676.33;1696507;82;21111;-89
2021/07/14 12:45:53;;;;;;;;;;;;;;;35.36;47.19;99679.69;1700699;83;20190;-85
2021/07/14 12:48:21;;;;;;;;;;;;;;;35.33;46.87;99673.49;1700430;82;20155;-91
2021/07/14 12:50:47;;;;;;;;;;;;;;;35.45;47.46;99677.43;1697913;83;20223;-91
2021/07/14 12:53:14;;;;;;;;;;;;;;;35.56;45.86;99675.88;1688981;83;20222;-89
2021/07/14 12:55:39;;;;;;;;;;;;;;;35.64;46.66;99676.36;1695800;83;21118;-90
2021/07/14 12:58:08;;;;;;;;;;;;;;;35.73;46.03;99671.59;1690088;83;20293;-92
2021/07/14 13:00:34;;;;;;;;;;;;;;;35.78;45.52;99680.81;1697278;83;20136;-90
2021/07/14 13:03:02;;;;;;;;;;;;;;;35.88;46.09;99680.40;1688298;83;20203;-88